sensor_id;sensor_type;location;lat;lon;timestamp;pressure;altitude;pressure_sealevel;temperature;humidity
27014;BME280;14556;52.222;4.510;2023-05-16T00:00:56;101282.16;;;6.73;100.00
27014;BME280;14556;52.222;4.510;2023-05-16T00:03:23;101289.44;;;6.71;100.00
27014;BME280;14556;52.222;4.510;2023-05-16T00:05:50;101288.47;;;6.72;100.00
27014;BME280;14556;52.222;4.510;2023-05-16T00:08:17;101289.31;;;6.72;100.00
27014;BME280;14556;52.222;4.510;2023-05-16T00:10:43;101294.47;;;6.74;100.00
27014;BME280;14556;52.222;4.510;2023-05-16T00:13:10;101295.44;;;6.73;100.00
27014;BME280;14556;52.222;4.510;2023-05-16T00:15:36;101297.31;;;6.81;100.00
27014;BME280;14556;52.222;4.510;2023-05-16T00:18:04;101300.13;;;6.79;100.00
27014;BME280;14556;52.222;4.510;2023-05-16T00:20:30;101301.78;;;6.80;100.00
27014;BME280;14556;52.222;4.510;2023-05-16T00:22:57;101295.31;;;6.83;100.00
27014;BME280;14556;52.222;4.510;2023-05-16T00:25:26;101293.13;;;6.78;100.00
27014;BME280;14556;52.222;4.510;2023-05-16T00:27:53;101288.81;;;6.69;100.00
27014;BME280;14556;52.222;4.510;2023-05-16T00:30:20;101289.44;;;6.71;100.00
27014;BME280;14556;52.222;4.510;2023-05-16T00:32:48;101283.44;;;6.60;100.00
27014;BME280;14556;52.222;4.510;2023-05-16T00:35:14;101287.63;;;6.71;100.00
27014;BME280;14556;52.222;4.510;2023-05-16T00:37:41;101292.94;;;6.71;100.00
27014;BME280;14556;52.222;4.510;2023-05-16T00:40:08;101287.00;;;6.77;100.00
27014;BME280;14556;52.222;4.510;2023-05-16T00:42:34;101295.09;;;6.76;100.00
27014;BME280;14556;52.222;4.510;2023-05-16T00:45:01;101295.09;;;6.76;100.00
27014;BME280;14556;52.222;4.510;2023-05-16T00:47:28;101289.31;;;6.72;100.00
27014;BME280;14556;52.222;4.510;2023-05-16T00:49:54;101291.13;;;6.72;100.00
27014;BME280;14556;52.222;4.510;2023-05-16T00:52:22;101294.13;;;6.77;100.00
27014;BME280;14556;52.222;4.510;2023-05-16T00:54:49;101295.94;;;6.76;100.00
27014;BME280;14556;52.222;4.510;2023-05-16T00:57:16;101281.16;;;6.74;100.00
27014;BME280;14556;52.222;4.510;2023-05-16T00:59:44;101286.16;;;6.77;100.00
27014;BME280;14556;52.222;4.510;2023-05-16T01:02:12;101283.66;;;6.75;100.00
27014;BME280;14556;52.222;4.510;2023-05-16T01:04:40;101288.47;;;6.80;100.00
27014;BME280;14556;52.222;4.510;2023-05-16T01:07:07;101293.31;;;6.85;100.00
27014;BME280;14556;52.222;4.510;2023-05-16T01:09:33;101287.34;;;6.83;100.00
27014;BME280;14556;52.222;4.510;2023-05-16T01:12:10;101290.81;;;6.83;100.00
27014;BME280;14556;52.222;4.510;2023-05-16T01:14:50;101285.66;;;6.82;100.00
27014;BME280;14556;52.222;4.510;2023-05-16T01:20:29;101289.50;;;6.79;100.00
27014;BME280;14556;52.222;4.510;2023-05-16T01:23:02;101290.63;;;6.76;100.00
27014;BME280;14556;52.222;4.510;2023-05-16T01:25:43;101291.63;;;6.75;100.00
27014;BME280;14556;52.222;4.510;2023-05-16T01:28:15;101287.13;;;6.76;100.00
27014;BME280;14556;52.222;4.510;2023-05-16T01:30:42;101291.47;;;6.77;100.00
27014;BME280;14556;52.222;4.510;2023-05-16T01:33:09;101290.63;;;6.76;100.00
27014;BME280;14556;52.222;4.510;2023-05-16T01:35:40;101295.09;;;6.76;100.00
27014;BME280;14556;52.222;4.510;2023-05-16T01:38:17;101287.63;;;6.71;100.00
27014;BME280;14556;52.222;4.510;2023-05-16T01:40:52;101288.13;;;6.75;100.00
27014;BME280;14556;52.222;4.510;2023-05-16T01:43:31;101289.44;;;6.71;100.00
27014;BME280;14556;52.222;4.510;2023-05-16T01:46:03;101296.09;;;6.67;100.00
27014;BME280;14556;52.222;4.510;2023-05-16T01:48:36;101275.59;;;6.50;100.00
27014;BME280;14556;52.222;4.510;2023-05-16T01:51:05;101288.41;;;6.55;100.00
27014;BME280;14556;52.222;4.510;2023-05-16T01:53:36;101261.94;;;6.37;100.00
27014;BME280;14556;52.222;4.510;2023-05-16T01:56:08;101297.72;;;6.51;100.00
27014;BME280;14556;52.222;4.510;2023-05-16T01:58:36;101298.38;;;6.53;100.00
27014;BME280;14556;52.222;4.510;2023-05-16T02:01:04;101297.19;;;6.47;100.00
27014;BME280;14556;52.222;4.510;2023-05-16T02:03:32;101299.03;;;6.55;100.00
27014;BME280;14556;52.222;4.510;2023-05-16T02:05:58;101309.66;;;6.55;100.00
27014;BME280;14556;52.222;4.510;2023-05-16T02:08:26;101299.03;;;6.55;100.00
27014;BME280;14556;52.222;4.510;2023-05-16T02:10:53;101308.03;;;6.62;100.00
27014;BME280;14556;52.222;4.510;2023-05-16T02:13:20;101299.59;;;6.67;100.00
27014;BME280;14556;52.222;4.510;2023-05-16T02:15:46;101305.72;;;6.68;100.00
27014;BME280;14556;52.222;4.510;2023-05-16T02:18:13;101304.59;;;6.70;100.00
27014;BME280;14556;52.222;4.510;2023-05-16T02:20:40;101307.25;;;6.70;100.00
27014;BME280;14556;52.222;4.510;2023-05-16T02:23:06;101308.06;;;6.71;100.00
27014;BME280;14556;52.222;4.510;2023-05-16T02:25:33;101301.94;;;6.70;100.00
27014;BME280;14556;52.222;4.510;2023-05-16T02:27:59;101306.75;;;6.75;100.00
27014;BME280;14556;52.222;4.510;2023-05-16T02:30:26;101317.22;;;6.76;100.00
27014;BME280;14556;52.222;4.510;2023-05-16T02:32:52;101315.41;;;6.77;100.00
27014;BME280;14556;52.222;4.510;2023-05-16T02:35:19;101321.56;;;6.77;100.00
27014;BME280;14556;52.222;4.510;2023-05-16T02:37:46;101324.00;;;6.71;100.00
27014;BME280;14556;52.222;4.510;2023-05-16T02:40:12;101326.66;;;6.71;100.00
27014;BME280;14556;52.222;4.510;2023-05-16T02:42:39;101324.50;;;6.66;100.00
27014;BME280;14556;52.222;4.510;2023-05-16T02:45:06;101325.00;;;6.70;100.00
27014;BME280;14556;52.222;4.510;2023-05-16T02:47:32;101318.03;;;6.69;100.00
27014;BME280;14556;52.222;4.510;2023-05-16T02:49:59;101329.19;;;6.72;100.00
27014;BME280;14556;52.222;4.510;2023-05-16T02:52:25;101323.38;;;6.69;100.00
27014;BME280;14556;52.222;4.510;2023-05-16T02:54:52;101315.38;;;6.69;100.00
27014;BME280;14556;52.222;4.510;2023-05-16T02:57:21;101319.03;;;6.68;100.00
27014;BME280;14556;52.222;4.510;2023-05-16T02:59:48;101321.69;;;6.68;100.00
27014;BME280;14556;52.222;4.510;2023-05-16T03:02:14;101321.84;;;6.66;100.00
27014;BME280;14556;52.222;4.510;2023-05-16T03:04:41;101323.66;;;6.65;100.00
27014;BME280;14556;52.222;4.510;2023-05-16T03:07:07;101329.81;;;6.66;100.00
27014;BME280;14556;52.222;4.510;2023-05-16T03:09:34;101329.66;;;6.68;100.00
27014;BME280;14556;52.222;4.510;2023-05-16T03:12:00;101316.00;;;6.62;100.00
27014;BME280;14556;52.222;4.510;2023-05-16T03:14:26;101337.97;;;6.73;100.00
27014;BME280;14556;52.222;4.510;2023-05-16T03:16:53;101326.47;;;6.64;100.00
27014;BME280;14556;52.222;4.510;2023-05-16T03:19:20;101327.69;;;6.70;100.00
27014;BME280;14556;52.222;4.510;2023-05-16T03:21:46;101326.31;;;6.65;100.00
27014;BME280;14556;52.222;4.510;2023-05-16T03:24:13;101332.16;;;6.69;100.00
27014;BME280;14556;52.222;4.510;2023-05-16T03:26:39;101325.00;;;6.61;100.00
27014;BME280;14556;52.222;4.510;2023-05-16T03:29:06;101340.13;;;6.69;100.00
27014;BME280;14556;52.222;4.510;2023-05-16T03:31:33;101335.66;;;6.70;100.00
27014;BME280;14556;52.222;4.510;2023-05-16T03:34:01;101336.50;;;6.70;100.00
27014;BME280;14556;52.222;4.510;2023-05-16T03:36:27;101336.81;;;6.67;100.00
27014;BME280;14556;52.222;4.510;2023-05-16T03:38:54;101338.47;;;6.68;100.00
27014;BME280;14556;52.222;4.510;2023-05-16T03:41:21;101338.97;;;6.63;100.00
27014;BME280;14556;52.222;4.510;2023-05-16T03:43:47;101344.94;;;6.65;100.00
27014;BME280;14556;52.222;4.510;2023-05-16T03:46:14;101353.75;;;6.66;100.00
27014;BME280;14556;52.222;4.510;2023-05-16T03:48:40;101351.25;;;6.64;100.00
27014;BME280;14556;52.222;4.510;2023-05-16T03:51:07;101348.75;;;6.63;100.00
27014;BME280;14556;52.222;4.510;2023-05-16T03:53:33;101354.22;;;6.61;100.00
27014;BME280;14556;52.222;4.510;2023-05-16T03:56:00;101352.56;;;6.60;100.00
27014;BME280;14556;52.222;4.510;2023-05-16T03:58:26;101350.38;;;6.56;100.00
27014;BME280;14556;52.222;4.510;2023-05-16T04:00:53;101346.69;;;6.48;100.00
27014;BME280;14556;52.222;4.510;2023-05-16T04:03:20;101347.69;;;6.47;100.00
27014;BME280;14556;52.222;4.510;2023-05-16T04:05:54;101355.50;;;6.49;100.00
27014;BME280;14556;52.222;4.510;2023-05-16T04:08:21;101355.16;;;6.44;100.00
27014;BME280;14556;52.222;4.510;2023-05-16T04:10:48;101347.34;;;6.42;100.00
27014;BME280;14556;52.222;4.510;2023-05-16T04:13:14;101349.16;;;6.41;100.00
27014;BME280;14556;52.222;4.510;2023-05-16T04:15:41;101351.13;;;6.39;100.00
27014;BME280;14556;52.222;4.510;2023-05-16T04:18:08;101351.69;;;6.51;100.00
27014;BME280;14556;52.222;4.510;2023-05-16T04:20:34;101359.03;;;6.58;100.00
27014;BME280;14556;52.222;4.510;2023-05-16T04:23:01;101359.19;;;6.56;100.00
27014;BME280;14556;52.222;4.510;2023-05-16T04:25:28;101348.22;;;6.51;100.00
27014;BME280;14556;52.222;4.510;2023-05-16T04:27:55;101340.41;;;6.49;100.00
27014;BME280;14556;52.222;4.510;2023-05-16T04:30:22;101348.88;;;6.53;100.00
27014;BME280;14556;52.222;4.510;2023-05-16T04:32:49;101358.50;;;6.54;100.00
27014;BME280;14556;52.222;4.510;2023-05-16T04:35:16;101364.19;;;6.59;100.00
27014;BME280;14556;52.222;4.510;2023-05-16T04:37:42;101356.22;;;6.59;100.00
27014;BME280;14556;52.222;4.510;2023-05-16T04:40:09;101370.88;;;6.63;100.00
27014;BME280;14556;52.222;4.510;2023-05-16T04:42:36;101356.53;;;6.56;100.00
27014;BME280;14556;52.222;4.510;2023-05-16T04:45:03;101370.88;;;6.63;100.00
27014;BME280;14556;52.222;4.510;2023-05-16T04:47:31;101375.00;;;6.66;100.00
27014;BME280;14556;52.222;4.510;2023-05-16T04:49:58;101372.19;;;6.68;100.00
27014;BME280;14556;52.222;4.510;2023-05-16T04:52:24;101371.88;;;6.71;100.00
27014;BME280;14556;52.222;4.510;2023-05-16T04:54:51;101380.00;;;6.69;100.00
27014;BME280;14556;52.222;4.510;2023-05-16T04:57:18;101377.19;;;6.71;100.00
27014;BME280;14556;52.222;4.510;2023-05-16T04:59:44;101371.06;;;6.70;100.00
27014;BME280;14556;52.222;4.510;2023-05-16T05:02:11;101380.53;;;6.73;100.00
27014;BME280;14556;52.222;4.510;2023-05-16T05:04:37;101387.56;;;6.82;100.00
27014;BME280;14556;52.222;4.510;2023-05-16T05:07:04;101382.09;;;6.92;100.00
27014;BME280;14556;52.222;4.510;2023-05-16T05:09:30;101393.75;;;6.99;100.00
27014;BME280;14556;52.222;4.510;2023-05-16T05:11:58;101395.94;;;7.04;100.00
27014;BME280;14556;52.222;4.510;2023-05-16T05:14:24;101392.63;;;7.10;100.00
27014;BME280;14556;52.222;4.510;2023-05-16T05:16:51;101379.34;;;7.10;100.00
27014;BME280;14556;52.222;4.510;2023-05-16T05:19:18;101389.16;;;7.18;100.00
27014;BME280;14556;52.222;4.510;2023-05-16T05:21:44;101400.69;;;7.35;100.00
27014;BME280;14556;52.222;4.510;2023-05-16T05:24:10;101392.53;;;7.37;100.00
27014;BME280;14556;52.222;4.510;2023-05-16T05:26:37;101405.34;;;7.50;100.00
27014;BME280;14556;52.222;4.510;2023-05-16T05:29:03;101401.56;;;7.61;100.00
27014;BME280;14556;52.222;4.510;2023-05-16T05:31:31;101407.53;;;7.71;100.00
27014;BME280;14556;52.222;4.510;2023-05-16T05:34:02;101400.06;;;7.75;100.00
27014;BME280;14556;52.222;4.510;2023-05-16T05:36:28;101411.56;;;7.76;100.00
27014;BME280;14556;52.222;4.510;2023-05-16T05:38:56;101417.34;;;7.71;100.00
27014;BME280;14556;52.222;4.510;2023-05-16T05:41:23;101417.03;;;7.66;100.00
27014;BME280;14556;52.222;4.510;2023-05-16T05:43:49;101421.69;;;7.64;100.00
27014;BME280;14556;52.222;4.510;2023-05-16T05:46:17;101422.69;;;7.62;100.00
27014;BME280;14556;52.222;4.510;2023-05-16T05:48:44;101417.69;;;7.59;100.00
27014;BME280;14556;52.222;4.510;2023-05-16T05:51:10;101423.69;;;7.61;100.00
27014;BME280;14556;52.222;4.510;2023-05-16T05:53:40;101432.81;;;7.67;100.00
27014;BME280;14556;52.222;4.510;2023-05-16T05:56:06;101430.66;;;7.71;100.00
27014;BME280;14556;52.222;4.510;2023-05-16T05:58:33;101413.22;;;7.68;100.00
27014;BME280;14556;52.222;4.510;2023-05-16T06:00:59;101430.66;;;7.71;100.00
27014;BME280;14556;52.222;4.510;2023-05-16T06:03:27;101434.34;;;7.78;100.00
27014;BME280;14556;52.222;4.510;2023-05-16T06:05:54;101424.88;;;7.76;100.00
27014;BME280;14556;52.222;4.510;2023-05-16T06:08:21;101408.34;;;7.64;100.00
27014;BME280;14556;52.222;4.510;2023-05-16T06:10:47;101442.00;;;7.81;100.00
27014;BME280;14556;52.222;4.510;2023-05-16T06:13:13;101422.03;;;7.85;100.00
27014;BME280;14556;52.222;4.510;2023-05-16T06:15:40;101439.19;;;8.00;100.00
27014;BME280;14556;52.222;4.510;2023-05-16T06:18:06;101436.84;;;8.13;100.00
27014;BME280;14556;52.222;4.510;2023-05-16T06:20:33;101444.19;;;8.19;100.00
27014;BME280;14556;52.222;4.510;2023-05-16T06:23:00;101431.34;;;8.06;100.00
27014;BME280;14556;52.222;4.510;2023-05-16T06:25:26;101443.34;;;8.10;100.00
27014;BME280;14556;52.222;4.510;2023-05-16T06:27:53;101444.81;;;8.21;100.00
27014;BME280;14556;52.222;4.510;2023-05-16T06:30:20;101446.66;;;8.29;100.00
27014;BME280;14556;52.222;4.510;2023-05-16T06:32:46;101445.31;;;8.42;100.00
27014;BME280;14556;52.222;4.510;2023-05-16T06:35:13;101444.47;;;8.41;100.00
27014;BME280;14556;52.222;4.510;2023-05-16T06:37:40;101439.16;;;8.41;100.00
27014;BME280;14556;52.222;4.510;2023-05-16T06:40:08;101454.13;;;8.42;100.00
27014;BME280;14556;52.222;4.510;2023-05-16T06:42:35;101448.16;;;8.32;100.00
27014;BME280;14556;52.222;4.510;2023-05-16T06:45:01;101459.66;;;8.32;100.00
27014;BME280;14556;52.222;4.510;2023-05-16T06:47:28;101451.00;;;8.39;100.00
27014;BME280;14556;52.222;4.510;2023-05-16T06:49:55;101449.63;;;8.51;100.00
27014;BME280;14556;52.222;4.510;2023-05-16T06:52:22;101451.97;;;8.63;100.00
27014;BME280;14556;52.222;4.510;2023-05-16T06:54:48;101450.13;;;8.55;100.00
27014;BME280;14556;52.222;4.510;2023-05-16T06:57:15;101458.81;;;8.49;100.00
27014;BME280;14556;52.222;4.510;2023-05-16T06:59:41;101450.81;;;8.57;100.00
27014;BME280;14556;52.222;4.510;2023-05-16T07:02:08;101453.63;;;8.64;100.00
27014;BME280;14556;52.222;4.510;2023-05-16T07:04:35;101460.28;;;8.76;100.00
27014;BME280;14556;52.222;4.510;2023-05-16T07:07:03;101456.44;;;8.79;100.00
27014;BME280;14556;52.222;4.510;2023-05-16T07:09:30;101454.59;;;8.79;100.00
27014;BME280;14556;52.222;4.510;2023-05-16T07:11:56;101454.09;;;8.76;100.00
27014;BME280;14556;52.222;4.510;2023-05-16T07:14:23;101435.66;;;8.57;100.00
27014;BME280;14556;52.222;4.510;2023-05-16T07:16:50;101459.44;;;8.67;100.00
27014;BME280;14556;52.222;4.510;2023-05-16T07:19:16;101464.25;;;8.72;100.00
27014;BME280;14556;52.222;4.510;2023-05-16T07:21:43;101465.41;;;8.86;100.00
27014;BME280;14556;52.222;4.510;2023-05-16T07:24:09;101468.72;;;8.88;100.00
27014;BME280;14556;52.222;4.510;2023-05-16T07:26:36;101464.38;;;8.95;100.00
27014;BME280;14556;52.222;4.510;2023-05-16T07:29:03;101467.63;;;9.14;100.00
27014;BME280;14556;52.222;4.510;2023-05-16T07:31:29;101469.50;;;9.14;100.00
27014;BME280;14556;52.222;4.510;2023-05-16T07:33:56;101468.13;;;9.18;100.00
27014;BME280;14556;52.222;4.510;2023-05-16T07:36:23;101468.56;;;9.30;100.00
27014;BME280;14556;52.222;4.510;2023-05-16T07:38:49;101479.41;;;9.37;100.00
27014;BME280;14556;52.222;4.510;2023-05-16T07:41:16;101476.72;;;9.37;100.00
27014;BME280;14556;52.222;4.510;2023-05-16T07:43:42;101476.00;;;9.43;100.00
27014;BME280;14556;52.222;4.510;2023-05-16T07:46:10;101474.63;;;9.55;100.00
27014;BME280;14556;52.222;4.510;2023-05-16T07:48:37;101471.50;;;9.43;100.00
27014;BME280;14556;52.222;4.510;2023-05-16T07:51:04;101476.06;;;9.35;100.00
27014;BME280;14556;52.222;4.510;2023-05-16T07:53:31;101480.69;;;9.41;100.00
27014;BME280;14556;52.222;4.510;2023-05-16T07:55:57;101476.69;;;9.45;100.00
27014;BME280;14556;52.222;4.510;2023-05-16T07:58:25;101485.34;;;9.47;100.00
27014;BME280;14556;52.222;4.510;2023-05-16T08:00:53;101488.34;;;9.44;100.00
27014;BME280;14556;52.222;4.510;2023-05-16T08:03:20;101488.81;;;9.56;100.00
27014;BME280;14556;52.222;4.510;2023-05-16T08:05:47;101491.31;;;9.81;100.00
27014;BME280;14556;52.222;4.510;2023-05-16T08:08:14;101492.44;;;9.87;100.00
27014;BME280;14556;52.222;4.510;2023-05-16T08:10:41;101493.03;;;9.97;100.00
27014;BME280;14556;52.222;4.510;2023-05-16T08:13:07;101478.44;;;10.08;100.00
27014;BME280;14556;52.222;4.510;2023-05-16T08:15:34;101486.63;;;10.07;100.00
27014;BME280;14556;52.222;4.510;2023-05-16T08:18:01;101493.16;;;10.04;100.00
27014;BME280;14556;52.222;4.510;2023-05-16T08:20:28;101488.75;;;10.11;100.00
27014;BME280;14556;52.222;4.510;2023-05-16T08:22:54;101466.97;;;9.99;100.00
27014;BME280;14556;52.222;4.510;2023-05-16T08:25:21;101491.31;;;10.04;100.00
27014;BME280;14556;52.222;4.510;2023-05-16T08:27:50;101488.72;;;9.96;100.00
27014;BME280;14556;52.222;4.510;2023-05-16T08:30:16;101488.28;;;10.08;100.00
27014;BME280;14556;52.222;4.510;2023-05-16T08:32:43;101478.16;;;10.18;100.00
27014;BME280;14556;52.222;4.510;2023-05-16T08:35:10;101487.50;;;10.22;100.00
27014;BME280;14556;52.222;4.510;2023-05-16T08:37:36;101498.19;;;10.22;100.00
27014;BME280;14556;52.222;4.510;2023-05-16T08:40:05;101473.19;;;10.15;100.00
27014;BME280;14556;52.222;4.510;2023-05-16T08:42:33;101481.44;;;10.44;100.00
27014;BME280;14556;52.222;4.510;2023-05-16T08:45:01;101480.56;;;10.51;100.00
27014;BME280;14556;52.222;4.510;2023-05-16T08:47:30;101480.84;;;10.57;100.00
27014;BME280;14556;52.222;4.510;2023-05-16T08:49:57;101482.41;;;10.51;100.00
27014;BME280;14556;52.222;4.510;2023-05-16T08:52:26;101479.41;;;10.46;100.00
27014;BME280;14556;52.222;4.510;2023-05-16T08:55:01;101484.94;;;10.29;100.00
27014;BME280;14556;52.222;4.510;2023-05-16T08:57:50;101495.44;;;10.31;100.00
27014;BME280;14556;52.222;4.510;2023-05-16T09:00:18;101506.34;;;10.68;100.00
27014;BME280;14556;52.222;4.510;2023-05-16T09:02:45;101493.75;;;10.53;100.00
27014;BME280;14556;52.222;4.510;2023-05-16T09:05:13;101513.25;;;10.38;100.00
27014;BME280;14556;52.222;4.510;2023-05-16T09:07:41;101509.19;;;10.27;100.00
27014;BME280;14556;52.222;4.510;2023-05-16T09:10:09;101507.31;;;10.28;100.00
27014;BME280;14556;52.222;4.510;2023-05-16T09:12:37;101510.63;;;10.15;100.00
27014;BME280;14556;52.222;4.510;2023-05-16T09:15:05;101506.31;;;10.29;100.00
27014;BME280;14556;52.222;4.510;2023-05-16T09:17:45;101510.72;;;10.45;100.00
27014;BME280;14556;52.222;4.510;2023-05-16T09:20:13;101503.28;;;10.71;100.00
27014;BME280;14556;52.222;4.510;2023-05-16T09:22:55;101496.38;;;10.76;100.00
27014;BME280;14556;52.222;4.510;2023-05-16T09:25:26;101511.50;;;10.69;100.00
27014;BME280;14556;52.222;4.510;2023-05-16T09:27:58;101514.81;;;10.33;100.00
27014;BME280;14556;52.222;4.510;2023-05-16T09:30:28;101518.09;;;10.20;100.00
27014;BME280;14556;52.222;4.510;2023-05-16T09:32:56;101518.88;;;10.44;100.00
27014;BME280;14556;52.222;4.510;2023-05-16T09:35:23;101514.56;;;10.66;100.00
27014;BME280;14556;52.222;4.510;2023-05-16T09:38:13;101512.41;;;10.61;100.00
27014;BME280;14556;52.222;4.510;2023-05-16T09:40:41;101521.47;;;10.75;100.00
27014;BME280;14556;52.222;4.510;2023-05-16T09:43:08;101522.22;;;10.84;100.00
27014;BME280;14556;52.222;4.510;2023-05-16T09:45:35;101510.66;;;10.69;100.00
27014;BME280;14556;52.222;4.510;2023-05-16T09:48:06;101511.69;;;10.83;100.00
27014;BME280;14556;52.222;4.510;2023-05-16T09:50:34;101509.31;;;11.03;100.00
27014;BME280;14556;52.222;4.510;2023-05-16T09:53:01;101515.94;;;11.22;100.00
27014;BME280;14556;52.222;4.510;2023-05-16T09:55:29;101513.56;;;10.97;100.00
27014;BME280;14556;52.222;4.510;2023-05-16T09:57:56;101512.34;;;11.00;100.00
27014;BME280;14556;52.222;4.510;2023-05-16T10:00:28;101511.78;;;11.20;100.00
27014;BME280;14556;52.222;4.510;2023-05-16T10:02:57;101519.91;;;11.27;100.00
27014;BME280;14556;52.222;4.510;2023-05-16T10:05:27;101517.03;;;11.43;100.00
27014;BME280;14556;52.222;4.510;2023-05-16T10:07:56;101515.88;;;11.53;100.00
27014;BME280;14556;52.222;4.510;2023-05-16T10:10:24;101517.91;;;11.51;100.00
27014;BME280;14556;52.222;4.510;2023-05-16T10:12:51;101495.41;;;11.30;100.00
27014;BME280;14556;52.222;4.510;2023-05-16T10:15:19;101514.34;;;11.28;100.00
27014;BME280;14556;52.222;4.510;2023-05-16T10:17:49;101517.63;;;11.45;100.00
27014;BME280;14556;52.222;4.510;2023-05-16T10:20:19;101513.34;;;11.29;100.00
27014;BME280;14556;52.222;4.510;2023-05-16T10:22:48;101505.00;;;11.39;100.00
27014;BME280;14556;52.222;4.510;2023-05-16T10:25:38;101517.09;;;11.35;100.00
27014;BME280;14556;52.222;4.510;2023-05-16T10:28:10;101509.75;;;11.07;100.00
27014;BME280;14556;52.222;4.510;2023-05-16T10:30:43;101507.25;;;11.05;100.00
27014;BME280;14556;52.222;4.510;2023-05-16T10:33:14;101507.03;;;11.37;100.00
27014;BME280;14556;52.222;4.510;2023-05-16T10:35:42;101508.78;;;11.45;100.00
27014;BME280;14556;52.222;4.510;2023-05-16T10:38:11;101507.84;;;11.53;100.00
27014;BME280;14556;52.222;4.510;2023-05-16T10:40:40;101513.88;;;11.77;100.00
27014;BME280;14556;52.222;4.510;2023-05-16T10:43:07;101496.38;;;11.81;100.00
27014;BME280;14556;52.222;4.510;2023-05-16T10:45:39;101503.66;;;11.65;100.00
27014;BME280;14556;52.222;4.510;2023-05-16T10:48:07;101501.47;;;11.54;100.00
27014;BME280;14556;52.222;4.510;2023-05-16T10:50:45;101504.41;;;11.59;100.00
27014;BME280;14556;52.222;4.510;2023-05-16T10:53:22;101512.91;;;11.84;100.00
27014;BME280;14556;52.222;4.510;2023-05-16T10:58:45;101520.72;;;12.01;100.00
27014;BME280;14556;52.222;4.510;2023-05-16T11:01:25;101511.16;;;11.92;100.00
27014;BME280;14556;52.222;4.510;2023-05-16T11:11:43;101504.44;;;12.03;100.00
27014;BME280;14556;52.222;4.510;2023-05-16T11:17:12;101505.34;;;12.10;100.00
27014;BME280;14556;52.222;4.510;2023-05-16T11:19:56;101484.19;;;12.00;100.00
27014;BME280;14556;52.222;4.510;2023-05-16T11:22:26;101506.47;;;12.01;100.00
27014;BME280;14556;52.222;4.510;2023-05-16T11:25:07;101499.97;;;11.88;100.00
27014;BME280;14556;52.222;4.510;2023-05-16T11:27:45;101503.59;;;11.80;100.00
27014;BME280;14556;52.222;4.510;2023-05-16T11:30:16;101500.03;;;11.73;100.00
27014;BME280;14556;52.222;4.510;2023-05-16T11:32:44;101506.59;;;11.70;100.00
27014;BME280;14556;52.222;4.510;2023-05-16T11:35:13;101515.84;;;11.90;100.00
27014;BME280;14556;52.222;4.510;2023-05-16T11:37:41;101500.69;;;11.97;100.00
27014;BME280;14556;52.222;4.510;2023-05-16T11:40:10;101486.13;;;11.84;100.00
27014;BME280;14556;52.222;4.510;2023-05-16T11:42:45;101507.75;;;12.05;100.00
27014;BME280;14556;52.222;4.510;2023-05-16T11:45:16;101515.06;;;12.11;100.00
27014;BME280;14556;52.222;4.510;2023-05-16T11:47:46;101498.88;;;11.82;100.00
27014;BME280;14556;52.222;4.510;2023-05-16T11:50:18;101516.56;;;11.99;100.00
27014;BME280;14556;52.222;4.510;2023-05-16T11:52:47;101509.66;;;11.89;100.00
27014;BME280;14556;52.222;4.510;2023-05-16T11:55:15;101487.63;;;11.72;100.00
27014;BME280;14556;52.222;4.510;2023-05-16T11:57:58;101479.19;;;11.53;100.00
27014;BME280;14556;52.222;4.510;2023-05-16T12:00:26;101502.91;;;11.71;100.00
27014;BME280;14556;52.222;4.510;2023-05-16T12:02:57;101512.03;;;11.99;100.00
27014;BME280;14556;52.222;4.510;2023-05-16T12:05:26;101496.59;;;12.01;100.00
27014;BME280;14556;52.222;4.510;2023-05-16T12:07:54;101512.69;;;12.01;100.00
27014;BME280;14556;52.222;4.510;2023-05-16T12:10:23;101499.69;;;12.05;100.00
27014;BME280;14556;52.222;4.510;2023-05-16T12:12:51;101501.00;;;12.09;100.00
27014;BME280;14556;52.222;4.510;2023-05-16T12:15:18;101488.91;;;11.98;100.00
27014;BME280;14556;52.222;4.510;2023-05-16T12:17:45;101508.97;;;12.02;100.00
27014;BME280;14556;52.222;4.510;2023-05-16T12:20:13;101501.84;;;12.09;100.00
27014;BME280;14556;52.222;4.510;2023-05-16T12:22:45;101499.97;;;12.10;100.00
27014;BME280;14556;52.222;4.510;2023-05-16T12:25:21;101514.22;;;12.32;100.00
27014;BME280;14556;52.222;4.510;2023-05-16T12:27:48;101503.09;;;12.36;100.00
27014;BME280;14556;52.222;4.510;2023-05-16T12:30:16;101495.31;;;12.19;100.00
27014;BME280;14556;52.222;4.510;2023-05-16T12:32:44;101506.25;;;12.17;100.00
27014;BME280;14556;52.222;4.510;2023-05-16T12:35:11;101516.41;;;12.22;100.00
27014;BME280;14556;52.222;4.510;2023-05-16T12:37:38;101514.41;;;12.31;100.00
27014;BME280;14556;52.222;4.510;2023-05-16T12:40:05;101499.97;;;12.10;100.00
27014;BME280;14556;52.222;4.510;2023-05-16T12:42:35;101528.53;;;12.18;100.00
27014;BME280;14556;52.222;4.510;2023-05-16T12:45:02;101512.28;;;12.26;100.00
27014;BME280;14556;52.222;4.510;2023-05-16T12:47:37;101511.41;;;12.41;100.00
27014;BME280;14556;52.222;4.510;2023-05-16T12:50:14;101522.78;;;12.43;100.00
27014;BME280;14556;52.222;4.510;2023-05-16T12:52:50;101524.22;;;12.45;100.00
27014;BME280;14556;52.222;4.510;2023-05-16T12:55:18;101528.94;;;12.43;100.00
27014;BME280;14556;52.222;4.510;2023-05-16T12:57:45;101514.84;;;12.35;100.00
27014;BME280;14556;52.222;4.510;2023-05-16T13:00:15;101496.94;;;12.13;100.00
27014;BME280;14556;52.222;4.510;2023-05-16T13:02:41;101519.44;;;12.19;100.00
27014;BME280;14556;52.222;4.510;2023-05-16T13:05:08;101529.69;;;12.30;100.00
27014;BME280;14556;52.222;4.510;2023-05-16T13:07:36;101536.44;;;12.48;100.00